Time;durP1;ratioP1;P1;durP2;ratioP2;P2;SDS_P1;SDS_P2;PMS_P1;PMS_P2;Temp;Humidity;BMP_temperature;BMP_pressure;BME280_temperature;BME280_humidity;BME280_pressure;Samples;Min_cycle;Max_cycle;Signal;HPM_P1;HPM_P2
2023/02/11 00:01:44;;;;;;;25.55;12.65;;;0.80;56.60;;;-4.27;95.75;97408.91;4970518;28;20041;-53
2023/02/11 00:04:16;;;;;;;22.85;11.77;;;0.80;56.70;;;-4.29;95.82;97410.84;4970523;28;20034;-49
2023/02/11 00:06:42;;;;;;;;;;;0.80;56.70;;;-4.31;95.54;97408.34;4957663;28;20034;-54
2023/02/11 00:09:09;;;;;;;25.30;12.32;;;0.80;56.50;;;-4.32;95.96;97405.88;4952304;28;20332;-50
2023/02/11 00:11:44;;;;;;;21.60;11.40;;;0.80;56.50;;;-4.34;96.53;97400.78;4949000;28;20030;-49
2023/02/11 00:14:16;;;;;;;26.73;12.55;;;0.80;56.70;;;-4.39;97.08;97399.50;4988103;28;20505;-51
2023/02/11 00:16:42;;;;;;;29.52;13.18;;;0.80;56.80;;;-4.35;96.70;97401.75;4970686;28;20028;-52
2023/02/11 00:19:14;;;;;;;24.67;12.13;;;0.80;56.80;;;-4.33;96.53;97404.22;4974213;28;20428;-48
2023/02/11 00:21:42;;;;;;;23.40;11.95;;;0.80;57.00;;;-4.34;96.12;97399.97;4991719;28;20380;-51
2023/02/11 00:24:08;;;;;;;21.33;11.23;;;0.70;56.90;;;-4.36;96.60;97404.47;4957066;28;20060;-49
2023/02/11 00:26:35;;;;;;;27.42;12.50;;;0.80;57.00;;;-4.37;96.36;97401.03;4972846;28;20015;-49
2023/02/11 00:29:12;;;;;;;24.33;12.30;;;0.80;57.00;;;-4.37;96.52;97405.41;4969840;28;20112;-47
2023/02/11 00:31:44;;;;;;;25.15;12.40;;;0.80;57.10;;;-4.42;95.90;97396.22;4991661;28;20420;-48
2023/02/11 00:34:16;;;;;;;22.67;12.60;;;0.70;57.00;;;-4.49;96.40;97408.06;4990902;28;20021;-49
2023/02/11 00:36:42;;;;;;;23.27;11.25;;;0.70;57.00;;;-4.47;96.98;97405.34;4992269;28;20280;-49
2023/02/11 00:39:14;;;;;;;20.50;11.43;;;0.70;57.00;;;-4.47;96.62;97403.56;4971166;28;20044;-50
2023/02/11 00:41:41;;;;;;;23.95;11.52;;;0.70;57.10;;;-4.48;96.76;97403.69;4972979;28;20030;-50
2023/02/11 00:44:16;;;;;;;22.33;10.57;;;0.70;57.00;;;-4.50;96.93;97401.22;4974583;28;20401;-49
2023/02/11 00:46:41;;;;;;;22.08;11.73;;;0.70;57.20;;;-4.52;96.70;97404.91;4978919;28;20054;-50
2023/02/11 00:49:10;;;;;;;24.90;10.70;;;0.70;57.10;;;-4.55;96.96;97395.56;4980285;28;20076;-51
2023/02/11 00:51:36;;;;;;;25.40;11.40;;;0.60;57.10;;;-4.54;96.30;97392.03;4973077;28;20049;-51
2023/02/11 00:54:05;;;;;;;24.60;10.65;;;0.60;57.10;;;-4.59;96.33;97388.97;4990613;28;20507;-47
2023/02/11 00:56:31;;;;;;;20.85;11.43;;;0.60;57.20;;;-4.61;96.11;97387.44;4991729;28;20451;-49
2023/02/11 00:58:57;;;;;;;22.27;11.27;;;0.60;57.20;;;-4.63;96.42;97384.16;4953380;28;20030;-50
2023/02/11 01:01:24;;;;;;;22.00;10.43;;;0.60;57.20;;;-4.68;96.58;97382.75;4956805;28;20064;-51
2023/02/11 01:03:50;;;;;;;22.23;10.75;;;0.50;57.20;;;-4.72;96.73;97378.75;4991554;28;20052;-54
2023/02/11 01:06:16;;;;;;;22.10;11.02;;;0.50;57.20;;;-4.75;96.77;97384.19;4978750;28;20025;-49
2023/02/11 01:08:42;;;;;;;19.20;9.93;;;0.50;57.20;;;-4.78;96.78;97379.25;4972400;28;20034;-49
2023/02/11 01:11:20;;;;;;;19.90;10.43;;;0.50;57.30;;;-4.83;96.63;97371.00;4947461;28;20053;-49
2023/02/11 01:13:48;;;;;;;22.83;10.52;;;0.40;57.30;;;-4.89;97.29;97381.88;4970552;28;20113;-48
2023/02/11 01:16:16;;;;;;;19.25;10.45;;;0.40;57.30;;;-4.91;97.89;97383.81;4973766;28;20535;-47
2023/02/11 01:18:43;;;;;;;24.95;11.77;;;0.40;57.40;;;-4.87;97.31;97377.41;4973677;28;20045;-53
2023/02/11 01:21:11;;;;;;;21.02;11.52;;;0.30;57.40;;;-4.90;96.86;97368.06;4990724;28;20380;-49
2023/02/11 01:23:37;;;;;;;19.13;10.15;;;0.30;57.40;;;-4.95;96.97;97369.38;4978708;28;20030;-52
2023/02/11 01:26:06;;;;;;;21.95;10.20;;;0.30;57.40;;;-5.01;97.36;97362.09;4971908;28;20026;-49
2023/02/11 01:28:41;;;;;;;20.17;9.75;;;0.30;57.50;;;-5.09;97.63;97354.91;4958986;28;20026;-50
2023/02/11 01:31:07;;;;;;;16.75;9.07;;;0.20;57.50;;;-5.05;97.41;97353.72;4969709;28;20384;-49
2023/02/11 01:33:36;;;;;;;20.67;10.07;;;0.20;57.50;;;-5.07;97.28;97347.84;4983923;28;20033;-47
2023/02/11 01:36:08;;;;;;;21.85;10.85;;;0.20;57.50;;;-5.10;98.44;97353.28;4988073;28;20045;-50
2023/02/11 01:38:34;;;;;;;21.80;10.35;;;0.10;57.60;;;-5.09;98.28;97346.28;4972848;28;20029;-48
2023/02/11 01:41:06;;;;;;;22.65;10.95;;;0.10;58.20;;;-5.07;98.16;97347.84;4973729;28;20029;-52
2023/02/11 01:43:49;;;;;;;23.33;10.90;;;0.10;57.70;;;-5.09;98.30;97339.31;4986694;28;20029;-50
2023/02/11 01:46:34;;;;;;;26.40;11.40;;;0.10;57.80;;;-5.13;98.42;97338.75;4972441;28;20284;-51
2023/02/11 01:49:20;;;;;;;23.90;10.95;;;0.10;57.90;;;-5.15;99.29;97340.63;4989582;28;20095;-50
2023/02/11 01:51:58;;;;;;;19.52;10.45;;;0.10;57.90;;;-5.14;98.81;97346.66;4989210;28;20030;-49
2023/02/11 01:57:27;;;;;;;25.38;11.57;;;0.00;57.90;;;-5.18;98.55;97327.88;4957508;28;20088;-50
2023/02/11 02:00:26;;;;;;;25.02;12.50;;;0.00;57.80;;;-5.16;98.85;97327.78;4966278;28;20041;-50
2023/02/11 02:03:27;;;;;;;29.25;12.27;;;0.00;58.00;;;-5.19;99.10;97333.22;4972816;28;20068;-49
2023/02/11 02:06:38;;;;;;;23.35;11.30;;;0.00;58.00;;;-5.19;99.76;97322.84;4973959;28;20204;-49
2023/02/11 02:09:28;;;;;;;22.42;11.88;;;0.00;58.10;;;-5.12;99.59;97323.97;4970209;28;20076;-49
2023/02/11 02:12:00;;;;;;;20.52;11.23;;;0.00;58.20;;;-5.09;99.33;97321.13;4943567;28;20041;-49
2023/02/11 02:14:27;;;;;;;25.88;11.57;;;0.00;58.10;;;-5.09;98.78;97307.31;4971179;28;20533;-49
2023/02/11 02:16:56;;;;;;;25.23;12.77;;;0.00;58.00;;;-5.15;99.12;97308.63;4978081;28;20473;-47
2023/02/11 02:19:52;;;;;;;30.33;13.05;;;0.00;58.10;;;-5.20;98.79;97302.97;4989155;28;20033;-49
2023/02/11 02:22:54;;;;;;;22.17;12.38;;;0.00;58.20;;;-5.26;99.18;97303.50;4987056;28;20010;-48
2023/02/11 02:26:02;;;;;;;28.25;12.95;;;-0.10;58.10;;;-5.27;99.43;97313.03;4989936;28;20049;-48
2023/02/11 02:28:58;;;;;;;26.15;12.68;;;0.00;58.20;;;-5.27;99.46;97309.63;4954986;28;20017;-47
2023/02/11 02:32:32;;;;;;;26.60;12.85;;;-0.10;58.10;;;-5.31;99.35;97306.44;4980420;28;20059;-48
2023/02/11 02:35:30;;;;;;;28.20;11.90;;;-0.10;58.20;;;-5.33;99.46;97310.94;4989555;28;20045;-51
2023/02/11 02:38:15;;;;;;;27.30;13.82;;;-0.20;58.20;;;-5.33;100.00;97313.53;4972458;28;20041;-49
2023/02/11 02:41:10;;;;;;;27.33;13.65;;;-0.20;58.40;;;-5.25;100.00;97307.72;4987877;28;20083;-50
2023/02/11 02:43:46;;;;;;;24.55;12.52;;;-0.20;58.50;;;-5.22;100.00;97304.88;4972446;28;20056;-53
2023/02/11 02:46:27;;;;;;;28.05;13.40;;;-0.20;58.40;;;-5.20;100.00;97300.38;4952430;28;20049;-52
2023/02/11 02:48:56;;;;;;;33.53;15.15;;;-0.10;58.60;;;-5.25;99.87;97298.16;4954372;28;20092;-51
2023/02/11 02:51:56;;;;;;;28.77;13.70;;;-0.10;58.50;;;-5.27;100.00;97291.44;4953470;28;20026;-52
2023/02/11 02:55:09;;;;;;;28.42;14.25;;;-0.10;58.60;;;-5.27;100.00;97294.03;4978728;28;20034;-51
2023/02/11 02:58:19;;;;;;;30.50;14.35;;;-0.10;58.60;;;-5.27;100.00;97307.84;4981046;28;20037;-51
2023/02/11 03:01:45;;;;;;;27.55;13.43;;;-0.10;58.60;;;-5.18;100.00;97303.69;4911479;28;20480;-50
2023/02/11 03:04:30;;;;;;;30.73;13.90;;;-0.10;58.70;;;-5.20;99.80;97306.41;4971154;28;20517;-50
2023/02/11 03:07:27;;;;;;;25.73;12.60;;;-0.10;58.70;;;-5.24;99.40;97302.41;4985239;28;20385;-49
2023/02/11 03:10:45;;;;;;;28.35;14.20;;;-0.10;58.70;;;-5.26;99.50;97298.31;4984330;28;20042;-48
2023/02/11 03:13:20;;;;;;;28.08;14.15;;;-0.10;58.70;;;-5.29;99.38;97299.38;4979172;28;20053;-51
2023/02/11 03:15:56;;;;;;;29.40;13.27;;;-0.10;58.60;;;-5.30;99.10;97291.69;4951063;28;20057;-52
2023/02/11 03:18:32;;;;;;;29.00;14.57;;;-0.10;58.70;;;-5.33;99.70;97304.91;4972161;28;20065;-51
2023/02/11 03:21:07;;;;;;;27.05;13.65;;;-0.10;58.80;;;-5.35;99.28;97308.47;4968706;28;20022;-49
2023/02/11 03:23:55;;;;;;;28.10;14.30;;;-0.20;58.70;;;-5.34;99.33;97296.31;4961547;28;20119;-50
2023/02/11 03:26:48;;;;;;;31.38;14.00;;;-0.10;58.80;;;-5.38;99.50;97295.72;4955152;28;20069;-51
2023/02/11 03:29:33;;;;;;;29.05;14.52;;;-0.20;58.70;;;-5.44;99.60;97287.59;4979836;28;20034;-53
2023/02/11 03:32:48;;;;;;;28.50;13.35;;;-0.20;58.70;;;-5.42;99.84;97285.69;4975677;28;20048;-55
2023/02/11 03:35:49;;;;;;;23.48;12.68;;;-0.20;58.80;;;-5.43;99.54;97290.06;4977791;28;20413;-54
2023/02/11 03:38:30;;;;;;;27.67;13.80;;;-0.20;58.80;;;-5.46;100.00;97279.09;4987957;28;20460;-52
2023/02/11 03:41:02;;;;;;;23.75;12.38;;;-0.20;58.80;;;-5.46;100.00;97273.91;4959544;28;20025;-50
2023/02/11 03:43:47;;;;;;;26.90;13.38;;;-0.20;58.80;;;-5.47;99.75;97269.66;4972164;28;20080;-53
2023/02/11 03:46:22;;;;;;;29.13;13.15;;;-0.30;58.80;;;-5.51;99.26;97265.69;4980121;28;20049;-52
2023/02/11 03:49:01;;;;;;;25.67;13.27;;;-0.30;58.80;;;-5.56;98.99;97260.03;4968765;28;20026;-52
2023/02/11 03:51:36;;;;;;;25.63;12.82;;;-0.30;58.80;;;-5.64;99.65;97265.81;4948174;28;20381;-52
2023/02/11 03:54:14;;;;;;;24.65;12.63;;;-0.30;58.80;;;-5.59;100.00;97279.25;4981083;28;20026;-55
2023/02/11 03:57:01;;;;;;;24.08;12.70;;;-0.30;58.80;;;-5.57;100.00;97274.78;4953980;28;20044;-54
2023/02/11 03:59:27;;;;;;;24.65;12.35;;;-0.30;58.90;;;-5.62;99.60;97269.13;4986716;28;20121;-53
2023/02/11 04:01:59;;;;;;;30.20;11.82;;;-0.30;58.80;;;-5.69;99.89;97273.16;4963531;28;20021;-52
2023/02/11 04:04:25;;;;;;;25.57;12.23;;;-0.40;58.90;;;-5.70;100.00;97269.75;4973068;28;20076;-50
2023/02/11 04:07:00;;;;;;;24.45;11.60;;;-0.40;58.80;;;-5.67;99.88;97260.88;4990516;28;20025;-54
2023/02/11 04:09:26;;;;;;;21.73;10.90;;;-0.40;59.00;;;-5.74;99.84;97257.94;4987691;28;20040;-49
2023/02/11 04:11:51;;;;;;;19.92;11.25;;;-0.40;58.90;;;-5.75;100.00;97261.50;4969709;28;20022;-55
2023/02/11 04:14:17;;;;;;;20.92;11.13;;;-0.40;59.00;;;-5.75;99.54;97258.06;4973745;28;20049;-53
2023/02/11 04:16:46;;;;;;;26.65;11.50;;;-0.50;58.90;;;-5.77;99.51;97255.59;4990882;28;20033;-52
2023/02/11 04:19:20;;;;;;;23.90;11.35;;;-0.50;59.00;;;-5.79;99.31;97256.69;4991360;28;20034;-51
2023/02/11 04:21:52;;;;;;;24.27;11.77;;;-0.50;59.00;;;-5.83;100.00;97269.03;4970298;28;20294;-53
2023/02/11 04:24:21;;;;;;;22.23;10.45;;;-0.50;59.10;;;-5.81;100.00;97267.16;4981197;28;20079;-53
2023/02/11 04:26:47;;;;;;;22.77;9.85;;;-0.50;59.10;;;-5.77;100.00;97257.34;4973773;28;20124;-53
2023/02/11 04:29:13;;;;;;;24.10;10.68;;;-0.50;59.10;;;-5.78;100.00;97253.94;4974204;28;20104;-55
2023/02/11 04:31:42;;;;;;;26.33;11.82;;;-0.50;59.10;;;-5.81;100.00;97256.78;4990757;28;20030;-50
2023/02/11 04:34:18;;;;;;;19.83;9.98;;;-0.50;59.20;;;-5.75;100.00;97261.50;4988951;28;20095;-52
2023/02/11 04:36:44;;;;;;;18.15;9.80;;;-0.50;59.20;;;-5.71;100.00;97257.69;4972930;28;20497;-52
2023/02/11 04:39:10;;;;;;;21.20;11.35;;;-0.50;59.20;;;-5.72;100.00;97258.66;4983782;28;20042;-51
2023/02/11 04:41:36;;;;;;;21.95;11.02;;;-0.50;59.20;;;-5.76;100.00;97256.44;4986738;28;20430;-52
2023/02/11 04:44:04;;;;;;;20.10;10.73;;;-0.50;59.20;;;-5.76;100.00;97259.03;4991247;28;20061;-49
2023/02/11 04:46:42;;;;;;;22.35;10.40;;;-0.50;59.20;;;-5.74;100.00;97264.91;4965410;28;20026;-52
2023/02/11 04:49:16;;;;;;;21.65;9.80;;;-0.50;59.40;;;-5.73;100.00;97263.97;4952104;28;20060;-50
2023/02/11 04:51:45;;;;;;;17.60;9.60;;;-0.50;59.30;;;-5.71;100.00;97267.25;4981882;28;20036;-51
2023/02/11 04:54:14;;;;;;;20.92;10.60;;;-0.50;59.30;;;-5.72;100.00;97263.84;4953868;28;20030;-50
2023/02/11 04:56:48;;;;;;;24.23;10.13;;;-0.50;59.30;;;-5.74;100.00;97268.31;4963595;28;20113;-53
2023/02/11 04:59:17;;;;;;;22.65;10.15;;;-0.50;59.40;;;-5.71;100.00;97275.03;4969750;28;20085;-49
2023/02/11 05:01:43;;;;;;;22.17;9.90;;;-0.50;59.40;;;-5.71;100.00;97281.06;4980962;28;20025;-49
2023/02/11 05:04:09;;;;;;;24.17;11.30;;;-0.50;59.40;;;-5.77;100.00;97278.94;4972410;28;20037;-50
2023/02/11 05:06:44;;;;;;;29.05;11.25;;;-0.50;59.40;;;-5.75;100.00;97281.44;4970876;28;20451;-49
2023/02/11 05:09:14;;;;;;;22.92;11.13;;;-0.50;59.40;;;-5.73;100.00;97284.75;4955710;28;20092;-54
2023/02/11 05:11:45;;;;;;;20.73;10.73;;;-0.50;59.40;;;-5.75;100.00;97279.66;4960281;28;20030;-50
2023/02/11 05:14:11;;;;;;;21.95;10.93;;;-0.50;59.50;;;-5.76;100.00;97269.41;4962032;28;20520;-49
2023/02/11 05:16:46;;;;;;;27.10;11.75;;;-0.50;59.40;;;-5.80;99.93;97276.59;4972489;28;20084;-54
2023/02/11 05:19:12;;;;;;;19.75;10.18;;;-0.50;59.50;;;-5.84;99.94;97275.19;4980902;28;20476;-51
2023/02/11 05:22:07;;;;;;;22.13;10.35;;;-0.50;59.40;;;-5.87;100.00;97275.44;4988568;28;20118;-51
2023/02/11 05:24:34;;;;;;;20.48;10.05;;;-0.50;59.50;;;-5.91;100.00;97269.66;4982506;28;20523;-48
2023/02/11 05:27:00;;;;;;;21.58;10.75;;;-0.60;59.40;;;-5.98;99.87;97278.91;4977410;28;20107;-50
2023/02/11 05:29:29;;;;;;;21.58;10.52;;;-0.60;59.40;;;-5.99;100.00;97287.63;4969579;28;20076;-53
2023/02/11 05:31:59;;;;;;;17.92;9.60;;;-0.60;59.40;;;-5.97;100.00;97288.34;4983107;28;20050;-49
2023/02/11 05:34:25;;;;;;;21.52;10.40;;;-0.60;59.40;;;-5.97;100.00;97293.53;4972917;28;20029;-54
2023/02/11 05:36:50;;;;;;;19.00;9.45;;;-0.60;59.50;;;-5.96;100.00;97295.16;4987505;28;20128;-51
2023/02/11 05:39:22;;;;;;;23.10;11.23;;;-0.60;59.60;;;-5.96;100.00;97300.38;4990723;28;20120;-48
2023/02/11 05:41:47;;;;;;;19.83;10.27;;;-0.60;59.60;;;-5.97;100.00;97296.13;4972535;28;20022;-53
2023/02/11 05:44:22;;;;;;;21.70;10.57;;;-0.60;59.70;;;-5.94;100.00;97305.44;4972251;28;20091;-53
2023/02/11 05:46:48;;;;;;;19.83;9.85;;;-0.60;59.80;;;-5.94;100.00;97308.03;4989471;28;20098;-50
2023/02/11 05:49:20;;;;;;;21.38;10.55;;;-0.60;59.80;;;-5.93;100.00;97307.91;4990403;28;20468;-49
2023/02/11 05:51:46;;;;;;;22.83;11.13;;;-0.60;59.90;;;-5.90;100.00;97315.44;4972886;28;20033;-51
2023/02/11 05:54:15;;;;;;;22.00;10.07;;;-0.60;59.90;;;-5.91;100.00;97308.59;4971574;28;20064;-53
2023/02/11 05:56:42;;;;;;;22.65;11.30;;;-0.60;59.80;;;-5.88;100.00;97312.72;4957032;28;20028;-48
2023/02/11 05:59:08;;;;;;;22.10;10.73;;;-0.60;59.90;;;-5.87;100.00;97319.56;4970944;28;20208;-52
2023/02/11 06:01:37;;;;;;;19.88;10.57;;;-0.60;59.90;;;-5.87;100.00;97312.59;4986171;28;20048;-49
2023/02/11 06:04:02;;;;;;;21.30;10.63;;;-0.60;59.90;;;-5.85;100.00;97312.50;4988309;28;20033;-49
2023/02/11 06:06:28;;;;;;;20.10;9.65;;;-0.50;59.90;;;-5.86;100.00;97319.47;4960891;28;20025;-49
2023/02/11 06:08:57;;;;;;;21.88;10.70;;;-0.50;59.90;;;-5.87;100.00;97317.78;4986832;28;20041;-47
2023/02/11 06:11:26;;;;;;;18.33;10.48;;;-0.50;59.90;;;-5.89;100.00;97316.25;4989370;28;20116;-54
2023/02/11 06:13:54;;;;;;;20.65;10.23;;;-0.50;59.90;;;-5.85;100.00;97326.28;4971591;28;20032;-51
2023/02/11 06:16:25;;;;;;;21.15;9.98;;;-0.50;59.90;;;-5.86;100.00;97324.66;4989190;28;20025;-50
2023/02/11 06:18:51;;;;;;;20.25;9.93;;;-0.50;59.90;;;-5.89;100.00;97319.69;4989755;28;20041;-51
2023/02/11 06:21:17;;;;;;;23.70;10.93;;;-0.50;59.80;;;-5.91;100.00;97318.16;4981281;28;20081;-48
2023/02/11 06:23:49;;;;;;;19.75;9.88;;;-0.50;59.80;;;-5.88;100.00;97316.13;4967079;28;20034;-49
2023/02/11 06:26:20;;;;;;;19.83;10.73;;;-0.60;59.80;;;-5.79;100.00;97321.56;4990409;28;20436;-49
2023/02/11 06:28:51;;;;;;;22.85;11.13;;;-0.60;59.90;;;-5.76;100.00;97321.34;4978794;28;20032;-48
2023/02/11 06:31:23;;;;;;;31.92;14.52;;;-0.50;59.90;;;-5.75;100.00;97326.38;4945364;28;20019;-51
2023/02/11 06:33:49;;;;;;;36.70;14.68;;;-0.60;60.00;;;-5.72;100.00;97327.94;4963581;28;20029;-50
2023/02/11 06:36:21;;;;;;;30.40;15.90;;;-0.50;59.90;;;-5.76;100.00;97331.72;4970171;28;20467;-47
2023/02/11 06:38:49;;;;;;;36.50;17.85;;;-0.50;60.00;;;-5.77;100.00;97338.66;4957426;28;20032;-48
2023/02/11 06:41:19;;;;;;;36.90;18.83;;;-0.50;59.90;;;-5.71;100.00;97340.78;4965703;28;20029;-46
2023/02/11 06:43:49;;;;;;;33.92;18.40;;;-0.50;60.00;;;-5.70;100.00;97333.81;4975259;28;20614;-51
2023/02/11 06:46:15;;;;;;;38.40;19.23;;;-0.50;60.00;;;-5.60;100.00;97337.34;4877848;28;32380;-54
2023/02/11 06:48:41;;;;;;;39.80;19.70;;;-0.50;60.00;;;-5.52;100.00;97327.16;4956673;28;20017;-49
2023/02/11 06:51:11;;;;;;;36.63;16.83;;;-0.40;60.30;;;-5.54;100.00;97323.88;4988144;28;20503;-49
2023/02/11 06:53:44;;;;;;;34.38;16.98;;;-0.40;60.20;;;-5.54;100.00;97316.09;4974618;28;20017;-52
2023/02/11 06:56:16;;;;;;;34.33;15.63;;;-0.40;60.10;;;-5.54;100.00;97323.06;4985753;28;20634;-45
2023/02/11 06:58:45;;;;;;;32.28;16.45;;;-0.30;60.10;;;-5.59;100.00;97310.44;5003088;28;20080;-50
2023/02/11 07:01:15;;;;;;;35.45;16.08;;;-0.30;60.00;;;-5.59;100.00;97313.03;4994745;28;20026;-49
2023/02/11 07:03:45;;;;;;;29.45;14.68;;;-0.30;60.10;;;-5.57;100.00;97318.09;4987077;28;20472;-51
2023/02/11 07:06:20;;;;;;;31.95;15.93;;;-0.30;60.00;;;-5.60;99.97;97317.41;4988251;28;20025;-50
2023/02/11 07:08:48;;;;;;;33.20;16.65;;;-0.30;60.00;;;-5.62;99.80;97311.50;4975144;28;20116;-45
2023/02/11 07:11:27;;;;;;;33.85;16.67;;;-0.20;60.00;;;-5.63;100.00;97303.84;5001995;28;20030;-50
2023/02/11 07:14:07;;;;;;;33.42;16.48;;;-0.20;60.00;;;-5.63;99.82;97302.06;4990304;28;20029;-51
2023/02/11 07:16:34;;;;;;;34.13;16.52;;;-0.20;59.90;;;-5.66;99.66;97299.69;4986132;28;20032;-47
2023/02/11 07:19:00;;;;;;;39.35;18.77;;;-0.20;59.90;;;-5.71;99.60;97294.03;4998961;28;20025;-52
2023/02/11 07:21:26;;;;;;;37.42;18.42;;;-0.10;59.90;;;-5.69;99.88;97293.94;4991188;28;20520;-53
2023/02/11 07:23:53;;;;;;;39.85;18.52;;;-0.10;59.90;;;-5.69;100.00;97289.56;4998792;28;20048;-45
2023/02/11 07:26:24;;;;;;;41.13;18.25;;;-0.10;59.90;;;-5.67;100.00;97298.06;4981125;28;20404;-49
2023/02/11 07:28:52;;;;;;;34.10;16.35;;;-0.10;60.00;;;-5.62;100.00;97295.91;4983331;28;20165;-47
2023/02/11 07:31:28;;;;;;;31.42;17.13;;;-0.10;60.00;;;-5.61;100.00;97287.19;4972973;28;23348;-50
2023/02/11 07:34:00;;;;;;;32.00;15.95;;;-0.10;60.00;;;-5.57;100.00;97281.75;4997626;28;20029;-50
2023/02/11 07:36:30;;;;;;;31.10;16.13;;;0.00;60.00;;;-5.56;100.00;97286.81;4980954;28;20380;-48
2023/02/11 07:38:57;;;;;;;28.38;14.27;;;0.00;60.00;;;-5.53;100.00;97296.97;4999650;28;20069;-50
2023/02/11 07:41:29;;;;;;;30.92;16.40;;;0.10;60.00;;;-5.50;100.00;97301.91;4980554;28;20025;-53
2023/02/11 07:43:55;;;;;;;28.15;15.45;;;0.20;60.00;;;-5.31;100.00;97300.44;4980237;28;20041;-47
2023/02/11 07:46:26;;;;;;;30.52;15.18;;;0.30;60.00;;;-5.03;100.00;97297.25;4971933;28;20057;-49
2023/02/11 07:48:52;;;;;;;34.42;15.20;;;0.60;60.00;;;-4.75;100.00;97292.38;4978715;28;20090;-50
2023/02/11 07:51:28;;;;;;;27.70;14.77;;;0.90;60.00;;;-4.36;100.00;97289.97;4978717;28;20807;-47
2023/02/11 07:53:59;;;;;;;25.05;13.60;;;1.30;60.10;;;-4.09;100.00;97282.44;4997067;28;20071;-48
2023/02/11 07:56:28;;;;;;;27.92;14.15;;;1.50;60.00;;;-3.91;99.38;97284.41;4994720;28;20372;-47
2023/02/11 07:58:59;;;;;;;27.10;13.35;;;1.80;60.00;;;-3.74;98.39;97276.78;4980114;28;20029;-49
2023/02/11 08:01:29;;;;;;;24.05;11.90;;;2.00;59.80;;;-3.55;97.94;97283.81;4978051;28;20030;-50
2023/02/11 08:03:58;;;;;;;21.92;12.20;;;2.20;59.60;;;-3.32;98.01;97283.53;4968981;28;20090;-45
2023/02/11 08:06:33;;;;;;;29.05;13.35;;;2.40;59.50;;;-3.24;95.99;97283.69;4996502;28;20028;-51
2023/02/11 08:09:13;;;;;;;27.65;14.05;;;2.60;59.30;;;-3.11;95.99;97286.03;4989644;28;20021;-50
2023/02/11 08:11:39;;;;;;;28.27;15.38;;;2.70;59.10;;;-2.94;95.33;97284.53;4964433;28;20017;-52
2023/02/11 08:14:11;;;;;;;28.73;15.60;;;2.80;59.00;;;-2.78;95.52;97281.34;4977974;28;20044;-50
2023/02/11 08:16:37;;;;;;;25.77;14.27;;;3.00;59.00;;;-2.54;95.17;97280.88;4985091;28;20033;-54
2023/02/11 08:19:15;;;;;;;24.50;13.82;;;3.20;59.00;;;-2.24;94.81;97277.25;4999863;28;20251;-52
2023/02/11 08:21:42;;;;;;;22.25;13.55;;;3.60;59.00;;;-1.85;94.95;97275.25;5000028;28;20064;-52
2023/02/11 08:24:10;;;;;;;23.08;12.90;;;4.00;58.80;;;-1.57;89.59;97270.03;4981816;28;20048;-49
2023/02/11 08:26:40;;;;;;;23.30;12.48;;;4.50;58.50;;;-1.33;88.33;97266.84;4981646;28;20080;-48
2023/02/11 08:29:14;;;;;;;23.00;12.10;;;4.80;58.10;;;-1.10;86.56;97270.66;4979994;28;20100;-52
2023/02/11 08:31:46;;;;;;;20.88;11.57;;;5.10;57.80;;;-0.86;85.47;97271.84;4983592;28;20033;-54
2023/02/11 08:34:17;;;;;;;21.83;11.27;;;5.40;57.50;;;-0.56;83.51;97273.22;4998814;28;20028;-50
2023/02/11 08:36:43;;;;;;;17.13;10.02;;;5.70;57.20;;;-0.29;79.39;97291.38;5001342;28;20060;-51
2023/02/11 08:39:20;;;;;;;15.85;10.27;;;6.00;57.40;;;0.01;76.77;97294.50;4980930;28;20393;-54
2023/02/11 08:41:55;;;;;;;18.65;10.20;;;6.40;56.20;;;0.19;76.70;97292.63;4991520;28;20021;-52
2023/02/11 08:44:24;;;;;;;15.43;8.57;;;6.60;55.90;;;0.36;76.65;97290.06;4999046;28;20139;-51
2023/02/11 08:46:53;;;;;;;15.27;9.10;;;6.80;55.70;;;0.43;73.71;97296.28;4999070;28;20021;-53
2023/02/11 08:49:21;;;;;;;15.65;9.18;;;6.90;55.40;;;0.55;74.85;97305.50;4995271;28;20080;-52
2023/02/11 08:51:50;;;;;;;14.90;8.98;;;7.00;55.20;;;0.67;74.31;97306.03;4982126;28;20460;-52
2023/02/11 08:54:17;;;;;;;12.50;7.30;;;7.20;55.00;;;0.43;71.05;97320.72;4989941;28;20028;-54
2023/02/11 08:56:51;;;;;;;11.02;7.10;;;7.30;54.60;;;0.11;71.83;97324.03;4964768;28;20102;-53
2023/02/11 08:59:17;;;;;;;8.65;5.82;;;7.30;54.00;;;0.23;71.62;97325.38;4997619;28;20037;-54
2023/02/11 09:01:43;;;;;;;12.52;7.00;;;7.20;53.80;;;0.42;71.90;97323.50;4981259;28;20032;-51
2023/02/11 09:04:09;;;;;;;10.63;6.50;;;7.20;53.70;;;0.53;71.90;97322.38;4982177;28;20492;-49
2023/02/11 09:06:35;;;;;;;10.32;7.05;;;7.20;53.60;;;0.61;74.14;97331.09;4978683;28;20079;-51
2023/02/11 09:09:01;;;;;;;8.77;5.80;;;7.10;53.50;;;0.33;68.45;97332.31;4977648;28;20037;-49
2023/02/11 09:11:34;;;;;;;8.48;5.32;;;7.10;53.40;;;0.47;69.52;97331.72;4993949;28;20472;-50
2023/02/11 09:14:01;;;;;;;8.18;5.10;;;7.10;53.00;;;0.49;68.71;97326.31;4995792;28;20503;-50
2023/02/11 09:16:33;;;;;;;9.82;5.80;;;7.10;53.00;;;0.60;68.84;97321.59;4998582;28;20338;-50
2023/02/11 09:19:03;;;;;;;16.17;8.90;;;7.10;52.80;;;0.64;72.47;97314.22;4990113;28;20099;-51
2023/02/11 09:21:29;;;;;;;21.15;11.93;;;7.20;52.70;;;0.93;73.50;97306.75;4976371;28;20029;-52
2023/02/11 09:23:56;;;;;;;20.77;13.15;;;7.40;52.80;;;1.01;74.44;97298.06;4991404;28;20448;-52
2023/02/11 09:26:35;;;;;;;24.77;14.48;;;7.50;52.90;;;1.08;74.49;97299.06;4980547;28;20033;-53
2023/02/11 09:29:04;;;;;;;23.20;14.48;;;7.50;52.90;;;1.27;75.03;97299.72;4980699;28;20045;-51
2023/02/11 09:31:32;;;;;;;21.67;14.63;;;7.60;52.90;;;1.60;73.71;97301.38;4996641;28;20021;-55
2023/02/11 09:34:05;;;;;;;25.58;15.45;;;8.10;52.60;;;2.02;73.36;97291.59;4985385;28;20052;-52
2023/02/11 09:36:37;;;;;;;22.38;14.40;;;8.70;52.30;;;2.45;72.50;97292.09;4976815;28;20460;-55
2023/02/11 09:39:10;;;;;;;22.07;13.40;;;9.30;52.10;;;2.70;69.68;97295.41;4977123;28;20056;-54
2023/02/11 09:42:19;;;;;;;19.55;12.95;;;9.50;51.80;;;2.84;67.18;97299.91;4997946;28;20283;-55
2023/02/11 09:44:46;;;;;;;21.13;10.30;;;9.80;51.30;;;2.91;64.80;97297.41;4999070;28;20387;-52
2023/02/11 09:47:31;;;;;;;18.15;11.20;;;9.80;51.10;;;2.95;65.03;97299.53;4962595;28;20052;-52
2023/02/11 09:50:23;;;;;;;18.60;10.88;;;9.80;50.70;;;2.99;62.53;97303.44;4982931;28;20099;-52
2023/02/11 09:53:00;;;;;;;18.13;10.85;;;9.80;50.30;;;3.03;64.23;97306.56;4963893;28;20033;-55
2023/02/11 09:55:30;;;;;;;14.27;9.68;;;9.70;50.40;;;2.99;62.73;97303.44;4981217;28;20025;-53
2023/02/11 09:58:02;;;;;;;17.30;10.27;;;9.70;50.30;;;2.89;63.92;97309.94;4986507;28;20128;-55
2023/02/11 10:00:47;;;;;;;13.88;9.00;;;9.70;50.00;;;2.86;62.35;97299.75;4968719;28;20226;-52
2023/02/11 10:03:34;;;;;;;13.57;8.70;;;9.70;49.70;;;2.91;61.78;97298.22;4981707;28;20025;-51
2023/02/11 10:06:34;;;;;;;13.45;8.15;;;9.80;49.60;;;2.96;61.01;97293.28;4995562;28;20045;-52
2023/02/11 10:09:31;;;;;;;13.13;8.95;;;9.80;49.00;;;2.96;63.44;97276.66;4991833;28;20021;-54
2023/02/11 10:12:20;;;;;;;14.77;9.18;;;9.80;49.10;;;2.87;62.71;97272.44;4980814;28;20045;-52
2023/02/11 10:15:31;;;;;;;12.18;7.90;;;9.70;48.80;;;2.71;61.81;97287.34;4981953;28;20041;-54
2023/02/11 10:18:12;;;;;;;13.40;6.90;;;9.50;48.60;;;2.66;63.47;97297.53;4996141;28;20044;-54
2023/02/11 10:21:15;;;;;;;11.80;8.32;;;9.40;48.70;;;2.73;64.18;97289.81;4995622;28;20035;-58
2023/02/11 10:23:51;;;;;;;18.20;10.75;;;9.40;48.70;;;2.81;64.46;97295.00;4999014;28;20044;-53
2023/02/11 10:26:21;;;;;;;13.50;8.98;;;9.30;48.90;;;2.90;64.73;97288.69;4984378;28;20029;-58
2023/02/11 10:28:54;;;;;;;14.48;9.20;;;9.30;48.90;;;2.99;63.81;97285.03;4993517;28;20448;-57
2023/02/11 10:31:42;;;;;;;12.70;8.75;;;9.40;48.90;;;3.12;63.29;97284.44;4976245;28;20036;-57
2023/02/11 10:34:14;;;;;;;13.38;8.90;;;9.60;48.80;;;3.38;62.19;97291.16;4996999;28;20029;-55
2023/02/11 10:36:47;;;;;;;13.30;8.40;;;9.80;48.80;;;3.59;62.44;97296.56;4970757;28;20037;-52
2023/02/11 10:39:26;;;;;;;12.40;7.70;;;10.10;48.80;;;3.77;59.88;97306.78;4977200;28;20044;-55
2023/02/11 10:42:11;;;;;;;10.95;8.23;;;10.30;48.50;;;3.97;60.06;97311.53;4995975;28;20368;-53
2023/02/11 10:45:05;;;;;;;12.32;7.68;;;10.50;48.20;;;4.06;57.92;97298.09;4996621;28;20494;-57